Station 45186 - Waukegan Buoy, IL Image indicating link to RSS feed of recent meteorological observations for station 45186


Conditions at 45186 as of
(1:20 pm CDT)
1820 GMT on 06/16/2024:
     

Click on the graph icon in the table below to see a time series plot of the last five days of that observation.

5-day plot - Wind Direction Wind Direction (WDIR): E ( 80 deg true )
5-day plot - Wind Speed Wind Speed (WSPD): 11.7 kts
5-day plot - Wind Gust Wind Gust (GST): 15.5 kts
5-day plot - Wave Height Wave Height (WVHT): 2.6 ft
5-day plot - Dominant Wave Period Dominant Wave Period (DPD): 5 sec
5-day plot - Air Temperature Air Temperature (ATMP): 67.6 °F
5-day plot - Water Temperature Water Temperature (WTMP): 62.2 °F
5-day plot - Wind Speed at 10 Meters Wind Speed at 10 meters (WSPD10M): 13.6 kts
5-day plot - Wind Speed at 20 Meters Wind Speed at 20 meters (WSPD20M): 15.5 kts
5-day plot -  Wind Speed, Wind Gust and Atmospheric Pressure Combined plot of Wind Speed, Gust, and Air Pressure
Previous observations
TIME
(CDT)
5-day plot - Wind Direction
WDIR
 
5-day plot - Wind Speed
WSPD
kts
5-day plot - Wind Gust
GST
kts
5-day plot - Wave Height
WVHT
ft
5-day plot - Dominant Wave Period
DPD
sec
5-day plot - Average Wave Period
APD
sec
5-day plot - Mean Wave Direction
MWD
 
5-day plot - Atmospheric Pressure
PRES
in
5-day plot - Pressure Tendency
PTDY
in
5-day plot - Air Temperature
ATMP
°F
5-day plot - Water Temperature
WTMP
°F
5-day plot - Dew Point
DEWP
°F
5-day plot - Salinity
SAL
psu
5-day plot - Visibility
VIS
nmi
5-day plot - Tide (above MLLW)
TIDE
ft
2024-06-16 01:10 pm E 13.6 17.5 2.6 4---- 67.6 62.2----
2024-06-16 12:50 pm E 11.7 15.5 2.6 4---- 67.1 62.2----
2024-06-16 12:40 pmENE 11.7 15.5 2.6 4---- 66.9 62.2----
2024-06-16 12:30 pm E 11.7 15.5 2.6 5---- 66.7 62.2----
2024-06-16 12:20 pm E 11.7 15.5 2.6 5---- 66.7 62.2----
2024-06-16 12:10 pm E 11.7 15.5 2.6 5---- 66.4 62.2----
2024-06-16 11:50 amENE 9.7 11.7 2.6 5---- 65.7 62.1----
2024-06-16 11:40 amENE 9.7 13.6 2.6 4---- 65.5 62.1----
2024-06-16 11:30 am E 9.7 13.6 2.6 5---- 65.7 62.1----
2024-06-16 11:20 am E 9.7 13.6 2.6 4---- 65.7 62.1----
2024-06-16 11:10 am E 9.7 13.6 2.6 4---- 65.8 62.1----
2024-06-16 10:50 am E 11.7 15.5 2.6 4---- 66.0 62.1----
2024-06-16 10:40 am E 11.7 15.5 2.6 4---- 66.0 62.1----
2024-06-16 10:30 am E 13.6 17.5 2.6 4---- 66.0 62.1----
2024-06-16 10:20 am E 13.6 15.5 2.6 5---- 65.7 62.1----
2024-06-16 10:10 am E 11.7 15.5 2.6 5---- 65.3 62.1----
2024-06-16 09:50 amENE 9.7 13.6 2.3 5---- 64.8 62.1----
2024-06-16 09:40 amENE 9.7 13.6 2.6 5---- 64.2 62.1----
2024-06-16 09:30 amENE 9.7 11.7 2.6 5---- 64.2 62.1----
2024-06-16 09:20 amENE 7.8 11.7 2.6 4---- 64.0 62.1----
2024-06-16 09:10 amENE 7.8 9.7 2.6 4---- 64.9 61.9----
2024-06-16 08:50 amENE 5.8 9.7 2.6 5---- 63.9 61.9----
2024-06-16 08:40 amENE 7.8 9.7 2.3 4---- 63.7 61.9----
2024-06-16 08:30 amENE 5.8 9.7 2.3 5---- 64.4 61.9----
2024-06-16 08:20 amENE 7.8 9.7 2.6 4---- 65.1 61.9----
2024-06-16 08:10 am E 7.8 9.7 2.3 4---- 64.4 61.9----
2024-06-16 07:50 am E 7.8 11.7 2.3 4---- 63.9 61.9----
2024-06-16 07:40 amENE 7.8 9.7 2.3 4---- 63.5 61.7----
2024-06-16 07:30 amENE 9.7 11.7 2.3 4---- 63.9 61.7----
2024-06-16 07:20 am E 9.7 13.6 2.3 4---- 64.2 61.7----
2024-06-16 07:10 am E 11.7 15.5 2.3 4---- 64.2 61.7----
2024-06-16 06:50 am E 11.7 15.5 2.6 4---- 64.0 61.7----
2024-06-16 06:40 am E 11.7 15.5 2.6 4---- 64.0 61.5----
2024-06-16 06:30 am E 11.7 13.6 2.6 4---- 64.0 61.5----
2024-06-16 06:20 am E 11.7 13.6 2.3 4---- 64.2 61.5----
2024-06-16 06:10 am E 11.7 13.6 2.3 4---- 64.0 61.5----
2024-06-16 05:50 am E 11.7 15.5 2.3 4---- 64.2 61.5----
2024-06-16 05:40 am E 11.7 15.5 2.6 4---- 64.0 61.5----
2024-06-16 05:30 am E 11.7 15.5 2.3 4---- 64.0 61.5----
2024-06-16 05:10 am E 11.7 15.5 2.3 4---- 63.9 61.7----
2024-06-16 04:50 am E 11.7 13.6 2.3 4---- 63.9 61.7----
2024-06-16 04:40 am E 11.7 15.5 2.0 4---- 64.0 61.7----
2024-06-16 04:30 am E 11.7 15.5 2.3 3---- 64.2 61.9----
2024-06-16 04:20 am E 11.7 15.5 2.3 4---- 64.4 61.9----
2024-06-16 04:10 am E 11.7 15.5 2.0 4---- 64.6 62.1----
2024-06-16 03:50 am E 13.6 17.5 2.0 3---- 64.6 62.4----
2024-06-16 03:40 am E 11.7 15.5 2.0 3---- 64.8 62.4----
2024-06-16 03:30 am E 11.7 15.5 2.0 3---- 64.6 62.6----
2024-06-16 03:20 am E 11.7 13.6 1.6 3---- 64.6 62.6----
2024-06-16 03:10 am E 9.7 13.6 2.0 3---- 64.6 62.6----
2024-06-16 02:50 am E 7.8 11.7 1.6 3---- 64.2 62.8----
2024-06-16 02:40 amENE 9.7 11.7 1.6 3---- 64.2 62.8----
2024-06-16 02:30 amENE 7.8 11.7 1.6 3---- 64.2 62.8----
2024-06-16 02:20 am E 7.8 9.7 1.6 3---- 64.2 62.8----
2024-06-16 02:10 am E 5.8 7.8 1.6 3---- 64.2 62.8----
2024-06-16 01:50 am E 9.7 11.7 2.0 3---- 65.5 62.6----
2024-06-16 01:40 am E 9.7 13.6 1.6 3---- 65.8 62.6----
2024-06-16 01:30 am E 9.7 13.6 1.6 3---- 65.7 62.6----
2024-06-16 01:20 amENE 11.7 15.5 1.6 3---- 65.7 62.6----
2024-06-16 01:10 amENE 9.7 13.6 1.6 4---- 65.8 62.6----
2024-06-16 12:50 am E 7.8 11.7 1.3 3---- 65.3 62.6----
2024-06-16 12:40 am E 5.8 7.8 1.6 4---- 64.8 62.2----
2024-06-16 12:30 am E 3.9 5.8 1.6 3---- 64.6 62.2----
2024-06-16 12:20 amESE 5.8 7.8 1.3 3---- 64.9 62.2----
2024-06-16 12:10 amESE 5.8 7.8 1.3 4---- 65.1 62.2----
2024-06-15 11:50 pmESE 5.8 7.8 1.3 3---- 64.6 62.2----
2024-06-15 11:40 pmESE 5.8 7.8 1.6 3---- 64.9 62.2----
2024-06-15 11:30 pm E 7.8 9.7 1.3 3---- 65.5 62.2----
2024-06-15 11:20 pm E 7.8 11.7 1.3 3---- 65.5 62.4----
2024-06-15 11:10 pm E 5.8 9.7 1.3 3---- 64.8 62.4----
2024-06-15 10:50 pm E 9.7 11.7 1.3 4---- 65.7 62.4----
2024-06-15 10:40 pm E 9.7 11.7 1.6 3---- 65.3 62.4----
2024-06-15 10:30 pmENE 7.8 11.7 1.3 4---- 65.3 62.4----
2024-06-15 10:20 pm E 9.7 11.7 1.6 3---- 65.5 62.4----
2024-06-15 10:10 pmENE 7.8 11.7 1.6 3---- 65.5 62.4----
2024-06-15 09:50 pmENE 7.8 9.7 1.6 3---- 64.9 62.2----
2024-06-15 09:40 pmENE 5.8 9.7 1.6 3---- 64.8 62.2----
2024-06-15 09:30 pmENE 5.8 7.8 1.6 3---- 64.6 62.2----
2024-06-15 09:20 pm NE 3.9 5.8 1.6 4---- 64.2 62.2----
2024-06-15 09:10 pmNNE 3.9 5.8 1.6 4---- 64.2 62.1----
2024-06-15 08:50 pmNNE 1.9 3.9 2.0 3---- 64.9 62.1----
2024-06-15 08:40 pm NE 1.9 3.9 2.3 4---- 65.5 62.1----
2024-06-15 08:30 pm E 1.9 3.9 2.0 3---- 65.7 62.1----
2024-06-15 08:20 pm E 3.9 5.8 2.3 4---- 66.0 62.1----
2024-06-15 08:10 pmSSE 3.9 5.8 2.3 4---- 65.7 62.1----
2024-06-15 07:50 pm E 11.7 15.5 2.3 3---- 67.6 62.1----
2024-06-15 07:40 pm E 13.6 17.5 2.3 3---- 67.8 62.1----
2024-06-15 07:30 pm E 15.5 19.4 2.3 3---- 67.8 62.1----
2024-06-15 07:20 pmENE 15.5 21.4 2.0 3---- 67.8 62.2----
2024-06-15 07:10 pmENE 17.5 21.4 2.0 3---- 68.0 62.2----
2024-06-15 06:50 pmENE 13.6 19.4 2.0 3---- 66.9 62.2----
2024-06-15 06:40 pmENE 9.7 17.5 1.6 3---- 66.4 62.2----
2024-06-15 06:30 pmENE 5.8 11.7 1.6 3---- 65.8 62.2----
2024-06-15 06:20 pmESE 3.9 5.8 1.6 3---- 65.7 62.2----
2024-06-15 06:10 pmSSE 1.9 3.9 1.6 4---- 66.4 62.2----
2024-06-15 05:50 pm E 3.9 7.8 1.6 4---- 67.3 62.2----
2024-06-15 05:40 pm E 3.9 7.8 1.6 4---- 66.6 62.2----
2024-06-15 05:30 pm E 3.9 7.8 1.6 4---- 66.0 62.2----
2024-06-15 05:20 pmENE 3.9 7.8 1.6 3---- 66.6 62.1----
2024-06-15 05:10 pm E 1.9 5.8 1.6 4---- 66.7 62.1----
2024-06-15 04:50 pm SE 1.9 3.9 1.6 4---- 65.3 62.1----
2024-06-15 04:40 pm SE 3.9 7.8 1.6 4---- 65.1 62.1----
2024-06-15 04:30 pm NE 5.8 7.8 1.6 4---- 65.5 62.1----
2024-06-15 04:20 pmENE 7.8 9.7 1.6 4---- 65.3 62.1----
2024-06-15 04:00 pmENE 7.8 9.7 1.6 4---- 64.9 62.1----
2024-06-15 03:50 pm NE 7.8 9.7 1.6 4---- 64.9 61.9----
2024-06-15 03:40 pm NE 7.8 9.7 1.6 3---- 65.1 61.9----
2024-06-15 03:30 pmNNE 7.8 11.7 2.0 4---- 65.1 61.9----
2024-06-15 03:20 pm NE 7.8 11.7 1.6 4---- 64.9 61.9----
2024-06-15 03:10 pm NE 9.7 13.6 1.6 3---- 65.1 61.9----
2024-06-15 02:50 pm NE 9.7 13.6 1.6 3---- 64.8 62.1----
2024-06-15 02:40 pmNNE 9.7 11.7 1.6 3---- 64.9 62.1----
2024-06-15 02:30 pm NE 7.8 11.7 1.6 3---- 64.9 61.9----
2024-06-15 02:20 pmNNE 7.8 11.7 1.6 3---- 64.8 61.9----
2024-06-15 02:10 pmNNE 9.7 11.7 1.3 3---- 64.6 61.9----
2024-06-15 01:50 pm NE 7.8 11.7 1.3 3---- 64.4 61.9----
2024-06-15 01:40 pmNNE 7.8 9.7 1.6 3---- 64.2 61.9----
2024-06-15 01:30 pm NE 7.8 9.7 1.6 3---- 64.4 61.9----
2024-06-15 01:20 pm NE 7.8 9.7 1.6 3---- 64.4 61.9----
2024-06-15 01:10 pm NE 7.8 11.7 1.6 3---- 64.2 61.9----
2024-06-15 12:50 pm NE 9.7 19.4 1.6 3---- 64.2 61.7----

Detailed Wave Summary
for 45186 as of (1:20 pm CDT)
1820 GMT on 06/16/2024:

These wave data are displayed in rounded times.

     

Click on the graph icon in the table below to see a time series plot of the last five days of that observation.

5-day plot - Significant Wave Height Significant Wave Height (WVHT): 2.6 ft
5-day plot - Wave Steepness Wave Steepness (STEEPNESS):VERY_STEEP
Previous observations
TIME
(CDT)
5-day plot - Wave Height
WVHT
ft
5-day plot - Swell Height
SwH
ft
5-day plot - Swell Period
SwP
sec
5-day plot - Swell Direction
SwD
 
5-day plot - Wind Wave Height
WWH
ft
5-day plot - Wind Wave Period
WWP
sec
5-day plot - Wind Wave Direction
WWD
 
5-day plot - Wave Steepness
STEEPNESS
 
5-day plot - Average Wave Period
APD
sec
2024-06-16 01:10 pm 2.6------ N/A-
2024-06-16 12:50 pm 2.6------VERY_STEEP-
2024-06-16 12:40 pm 2.6------VERY_STEEP-
2024-06-16 12:30 pm 2.6------ N/A-
2024-06-16 12:20 pm 2.6------VERY_STEEP-
2024-06-16 12:10 pm 2.6------VERY_STEEP-
2024-06-16 11:50 am 2.6------VERY_STEEP-
2024-06-16 11:40 am 2.6------VERY_STEEP-
2024-06-16 11:30 am 2.6------VERY_STEEP-
2024-06-16 11:20 am 2.6------VERY_STEEP-
2024-06-16 11:10 am 2.6------ N/A-
2024-06-16 10:50 am 2.6------VERY_STEEP-
2024-06-16 10:40 am 2.6------VERY_STEEP-
2024-06-16 10:30 am 2.6------ N/A-
2024-06-16 10:20 am 2.6------VERY_STEEP-
2024-06-16 10:10 am 2.6------VERY_STEEP-
2024-06-16 09:50 am 2.3------ N/A-
2024-06-16 09:40 am 2.6------VERY_STEEP-
2024-06-16 09:30 am 2.6------ N/A-
2024-06-16 09:20 am 2.6------VERY_STEEP-
2024-06-16 09:10 am 2.6------ N/A-
2024-06-16 08:50 am 2.6------ N/A-
2024-06-16 08:40 am 2.3------ N/A-
2024-06-16 08:30 am 2.3------ N/A-
2024-06-16 08:20 am 2.6------ N/A-
2024-06-16 08:10 am 2.3------ N/A-
2024-06-16 07:50 am 2.3------ N/A-
2024-06-16 07:40 am 2.3------ N/A-
2024-06-16 07:30 am 2.3------ N/A-
2024-06-16 07:20 am 2.3------ N/A-
2024-06-16 07:10 am 2.3------ N/A-
2024-06-16 06:50 am 2.6------ N/A-
2024-06-16 06:40 am 2.6------ N/A-
2024-06-16 06:30 am 2.6------ N/A-
2024-06-16 06:20 am 2.3------ N/A-
2024-06-16 06:10 am 2.3------ N/A-
2024-06-16 05:50 am 2.3------ N/A-
2024-06-16 05:40 am 2.6------ N/A-
2024-06-16 05:30 am 2.3------ N/A-
2024-06-16 05:10 am 2.3------ N/A-
2024-06-16 04:50 am 2.3------ N/A-
2024-06-16 04:40 am 2.0------ N/A-
2024-06-16 04:30 am 2.3------ N/A-
2024-06-16 04:20 am 2.3------ N/A-
2024-06-16 04:10 am 2.0------ N/A-
2024-06-16 03:50 am 2.0------ N/A-
2024-06-16 03:40 am 2.0------ N/A-
2024-06-16 03:30 am 2.0------ N/A-
2024-06-16 03:20 am 1.6------ N/A-
2024-06-16 03:10 am 2.0------ N/A-
2024-06-16 02:50 am 1.6------ N/A-
2024-06-16 02:40 am 1.6------ N/A-
2024-06-16 02:30 am 1.6------ N/A-
2024-06-16 02:20 am 1.6------ N/A-
2024-06-16 02:10 am 1.6------ N/A-
2024-06-16 01:50 am 2.0------ N/A-
2024-06-16 01:40 am 1.6------ N/A-
2024-06-16 01:30 am 1.6------ N/A-
2024-06-16 01:20 am 1.6------ N/A-
2024-06-16 01:10 am 1.6------ N/A-
2024-06-16 12:50 am 1.3------ N/A-
2024-06-16 12:40 am 1.6------ N/A-
2024-06-16 12:30 am 1.6------ N/A-
2024-06-16 12:20 am 1.3------ N/A-
2024-06-16 12:10 am 1.3------ N/A-
2024-06-15 11:50 pm 1.3------ N/A-
2024-06-15 11:40 pm 1.6------ N/A-
2024-06-15 11:30 pm 1.3------ N/A-
2024-06-15 11:20 pm 1.3------ N/A-
2024-06-15 11:10 pm 1.3------ N/A-
2024-06-15 10:50 pm 1.3------ N/A-
2024-06-15 10:40 pm 1.6------ N/A-
2024-06-15 10:30 pm 1.3------ N/A-
2024-06-15 10:20 pm 1.6------ N/A-
2024-06-15 10:10 pm 1.6------ N/A-
2024-06-15 09:50 pm 1.6------ N/A-
2024-06-15 09:40 pm 1.6------ N/A-
2024-06-15 09:30 pm 1.6------ N/A-
2024-06-15 09:20 pm 1.6------ N/A-
2024-06-15 09:10 pm 1.6------ N/A-
2024-06-15 08:50 pm 2.0------ N/A-
2024-06-15 08:40 pm 2.3------ N/A-
2024-06-15 08:30 pm 2.0------ N/A-
2024-06-15 08:20 pm 2.3------ N/A-
2024-06-15 08:10 pm 2.3------ N/A-
2024-06-15 07:50 pm 2.3------ N/A-
2024-06-15 07:40 pm 2.3------ N/A-
2024-06-15 07:30 pm 2.3------ N/A-
2024-06-15 07:20 pm 2.0------ N/A-
2024-06-15 07:10 pm 2.0------ N/A-
2024-06-15 06:50 pm 2.0------ N/A-
2024-06-15 06:40 pm 1.6------ N/A-
2024-06-15 06:30 pm 1.6------ N/A-
2024-06-15 06:20 pm 1.6------ N/A-
2024-06-15 06:10 pm 1.6------ N/A-
2024-06-15 05:50 pm 1.6------ N/A-
2024-06-15 05:40 pm 1.6------ N/A-
2024-06-15 05:30 pm 1.6------ N/A-
2024-06-15 05:20 pm 1.6------ N/A-
2024-06-15 05:10 pm 1.6------ N/A-
2024-06-15 04:50 pm 1.6------ N/A-
2024-06-15 04:40 pm 1.6------ N/A-
2024-06-15 04:30 pm 1.6------ N/A-
2024-06-15 04:20 pm 1.6------ N/A-
2024-06-15 04:00 pm 1.6------ N/A-
2024-06-15 03:50 pm 1.6------ N/A-
2024-06-15 03:40 pm 1.6------ N/A-
2024-06-15 03:30 pm 2.0------ N/A-
2024-06-15 03:20 pm 1.6------ N/A-
2024-06-15 03:10 pm 1.6------ N/A-
2024-06-15 02:50 pm 1.6------ N/A-
2024-06-15 02:40 pm 1.6------ N/A-
2024-06-15 02:30 pm 1.6------ N/A-
2024-06-15 02:20 pm 1.6------ N/A-
2024-06-15 02:10 pm 1.3------ N/A-
2024-06-15 01:50 pm 1.3------ N/A-
2024-06-15 01:40 pm 1.6------ N/A-
2024-06-15 01:30 pm 1.6------ N/A-
2024-06-15 01:20 pm 1.6------ N/A-
2024-06-15 01:10 pm 1.6------ N/A-
2024-06-15 12:50 pm 1.6------ N/A-

Disclaimer: Ocean current directions are reported to the nearest 10 degrees and speeds are measured to the nearest whole centimeter per second.

Ocean Current Data for 45186

Unit of Measure:   Time Zone:   
1:20 pm CDT 1:10 pm CDT12:50 pm CDT12:40 pm CDT12:30 pm CDT12:20 pm CDT12:10 pm CDT11:50 am CDT
Depth
ft
Dir
°
Speed
kts
Dir
°
Speed
kts
Dir
°
Speed
kts
Dir
°
Speed
kts
Dir
°
Speed
kts
Dir
°
Speed
kts
Dir
°
Speed
kts
Dir
°
Speed
kts
7 20 0.43 20 0.41 30 0.47 20 0.43 30 0.41 30 0.39 30 0.45 20 0.35

Previous (up to 48) reports of ocean current data for 45186

Ocean Current Stick Plots are available in metric units only:

All Instruments - 1-day plot - ocean current 1-day plot     3-day plot - ocean current 3-day plot     5-day plot - ocean current 5-day plot